Time;durP1;ratioP1;P1;durP2;ratioP2;P2;SDS_P1;SDS_P2;PMS_P1;PMS_P2;Temp;Humidity;BMP_temperature;BMP_pressure;BME280_temperature;BME280_humidity;BME280_pressure;Samples;Min_cycle;Max_cycle;Signal;HPM_P1;HPM_P2
2021/11/08 05:31:55;;;;;;;4.53;1.33;;;16.10;96.90;;;;;;4897372;29;20037;-47
2021/11/08 05:34:21;;;;;;;3.75;1.40;;;;;;;;;;4897419;29;20119;-47
2021/11/08 05:36:47;;;;;;;4.25;1.45;;;;;;;;;;4897353;29;20394;-47
2021/11/08 05:39:13;;;;;;;2.45;1.00;;;15.90;96.90;;;;;;4897364;29;20036;-49
2021/11/08 05:41:41;;;;;;;5.05;1.52;;;14.00;69.70;;;;;;4897108;29;20136;-47
2021/11/08 05:44:07;;;;;;;5.85;1.48;;;;;;;;;;4897259;29;20043;-48
2021/11/08 05:46:34;;;;;;;5.30;1.38;;;15.90;70.30;;;;;;4897225;29;20115;-48
2021/11/08 05:49:00;;;;;;;3.35;1.58;;;16.00;97.00;;;;;;4896870;29;20088;-48
2021/11/08 05:51:26;;;;;;;4.40;1.30;;;15.90;97.10;;;;;;4897036;29;20104;-48
2021/11/08 05:53:53;;;;;;;3.63;1.00;;;15.90;97.20;;;;;;4896960;29;20032;-48
2021/11/08 06:11:36;;;;;;;4.35;1.70;;;15.80;87.30;;;;;;4902141;29;20037;-51
2021/11/08 06:50:43;;;;;;;7.13;1.70;;;16.10;97.30;;;;;;4865015;29;20129;-48
2021/11/08 06:53:17;;;;;;;5.60;1.50;;;16.50;97.30;;;;;;4915285;29;20115;-47
2021/11/08 06:55:46;;;;;;;5.25;1.80;;;;;;;;;;4918978;29;20047;-47
2021/11/08 06:58:16;;;;;;;4.47;2.00;;;16.50;97.60;;;;;;4918582;29;20114;-48
2021/11/08 07:00:41;;;;;;;;;;;16.40;71.70;;;;;;4919322;29;20379;-48
2021/11/08 07:03:07;;;;;;;5.60;2.10;;;;;;;;;;4918159;29;19925;-47
2021/11/08 07:05:33;;;;;;;6.88;1.55;;;16.20;97.50;;;;;;4918492;29;20036;-47
2021/11/08 07:07:59;;;;;;;4.97;1.30;;;;;;;;;;4918509;29;20031;-46
2021/11/08 07:10:25;;;;;;;4.53;1.52;;;;;;;;;;4918550;29;20039;-48
2021/11/08 07:12:52;;;;;;;9.43;1.80;;;16.00;92.40;;;;;;4918228;29;20063;-47
2021/11/08 07:15:23;;;;;;;5.20;1.40;;;16.30;97.70;;;;;;4918553;29;20063;-47
2021/11/08 07:17:50;;;;;;;5.30;1.95;;;16.20;71.70;;;;;;4918525;29;20028;-47
2021/11/08 07:20:17;;;;;;;5.75;1.58;;;15.90;97.80;;;;;;4918440;29;20024;-47
2021/11/08 07:22:43;;;;;;;5.75;1.65;;;16.00;97.60;;;;;;4918409;29;20033;-46
2021/11/08 07:25:09;;;;;;;6.18;1.65;;;16.30;97.80;;;;;;4918570;29;20031;-48
2021/11/08 07:27:35;;;;;;;5.60;1.45;;;;;;;;;;4918103;29;20036;-48
2021/11/08 07:30:01;;;;;;;7.07;1.92;;;15.90;98.00;;;;;;4918623;29;20386;-47
2021/11/08 07:32:27;;;;;;;6.32;1.50;;;16.20;98.00;;;;;;4918073;29;20483;-47
2021/11/08 07:34:54;;;;;;;2.95;1.67;;;16.10;71.50;;;;;;4917983;29;20084;-47
2021/11/08 07:37:20;;;;;;;3.22;1.25;;;16.30;98.20;;;;;;4918109;29;20036;-48
2021/11/08 07:39:46;;;;;;;6.22;1.90;;;16.10;98.20;;;;;;4918135;29;20047;-47
2021/11/08 07:42:12;;;;;;;4.50;1.88;;;;;;;;;;4917713;29;20068;-47
2021/11/08 07:44:38;;;;;;;4.97;2.17;;;;;;;;;;4918020;29;20035;-47
2021/11/08 07:47:03;;;;;;;12.48;1.65;;;16.30;98.20;;;;;;4918052;29;20032;-47
2021/11/08 07:49:29;;;;;;;5.50;1.65;;;;;;;;;;4917896;29;20507;-47
2021/11/08 07:51:55;;;;;;;8.13;1.65;;;;;;;;;;4917575;29;20066;-47
2021/11/08 07:54:21;;;;;;;7.13;1.60;;;16.20;94.20;;;;;;4917452;29;20025;-47
2021/11/08 07:56:48;;;;;;;2.80;1.52;;;16.40;97.90;;;;;;4917868;29;20031;-47
2021/11/08 07:59:18;;;;;;;8.68;2.00;;;16.20;97.90;;;;;;4917436;29;20483;-47
2021/11/08 08:01:44;;;;;;;6.85;2.03;;;15.80;97.80;;;;;;4917216;29;20039;-47
2021/11/08 08:04:10;;;;;;;3.83;1.60;;;15.90;98.10;;;;;;4917842;29;20028;-47
2021/11/08 08:06:36;;;;;;;5.53;1.92;;;16.20;98.10;;;;;;4917683;29;20165;-47
2021/11/08 08:09:04;;;;;;;8.30;2.35;;;16.30;97.90;;;;;;4917307;29;20032;-47
2021/11/08 08:11:30;;;;;;;9.45;2.30;;;;;;;;;;4917257;29;20059;-48
2021/11/08 08:13:55;;;;;;;8.60;2.05;;;16.30;97.80;;;;;;4917203;29;20107;-47
2021/11/08 08:16:21;;;;;;;6.22;2.22;;;;;;;;;;4917066;29;20135;-48
2021/11/08 08:18:48;;;;;;;9.07;2.28;;;16.30;98.00;;;;;;4917447;29;20032;-47
2021/11/08 08:21:15;;;;;;;5.10;2.08;;;;;;;;;;4916828;29;20032;-48
2021/11/08 08:23:41;;;;;;;10.10;2.33;;;;;;;;;;4917334;29;20084;-47
2021/11/08 08:26:08;;;;;;;8.98;2.13;;;16.30;96.40;;;;;;4916998;29;20034;-47
2021/11/08 08:28:33;;;;;;;7.15;1.90;;;;;;;;;;4917138;29;20024;-47
2021/11/08 08:30:59;;;;;;;8.95;2.05;;;16.60;98.00;;;;;;4917140;29;20031;-47
2021/11/08 08:33:27;;;;;;;5.65;2.10;;;16.50;97.90;;;;;;4917066;29;20027;-48
2021/11/08 08:35:53;;;;;;;5.53;2.20;;;;;;;;;;4916897;29;20444;-47
2021/11/08 08:38:19;;;;;;;5.75;1.90;;;;;;;;;;4917049;29;20031;-47
2021/11/08 08:40:47;;;;;;;5.78;1.92;;;16.40;71.70;;;;;;4916733;29;20484;-48
2021/11/08 08:43:14;;;;;;;8.10;2.10;;;16.50;78.70;;;;;;4916938;29;20036;-48
2021/11/08 08:45:40;;;;;;;5.32;1.70;;;16.20;97.60;;;;;;4916743;29;20596;-47
2021/11/08 08:48:06;;;;;;;6.20;1.70;;;16.20;97.90;;;;;;4916714;29;20149;-47
2021/11/08 08:50:32;;;;;;;5.90;1.40;;;16.30;91.50;;;;;;4916648;29;20024;-47
2021/11/08 08:52:58;;;;;;;6.85;2.17;;;;;;;;;;4916575;29;20035;-48
2021/11/08 08:55:25;;;;;;;7.00;1.88;;;;;;;;;;4916766;29;20020;-47
2021/11/08 08:57:51;;;;;;;7.10;1.70;;;;;;;;;;4916590;29;20067;-47
2021/11/08 09:00:19;;;;;;;12.20;2.35;;;16.60;94.40;;;;;;4916401;29;20028;-48
2021/11/08 09:02:45;;;;;;;8.63;2.35;;;;;;;;;;4915781;29;20079;-47
2021/11/08 09:05:11;;;;;;;6.82;2.10;;;;;;;;;;4916084;29;20032;-47
2021/11/08 09:07:37;;;;;;;8.25;2.20;;;16.50;70.40;;;;;;4916325;29;20039;-47
2021/11/08 09:10:04;;;;;;;7.78;2.28;;;16.60;97.40;;;;;;4916347;29;20024;-48
2021/11/08 09:12:30;;;;;;;6.75;2.08;;;16.60;97.60;;;;;;4916458;29;20043;-47
2021/11/08 09:14:56;;;;;;;7.80;1.90;;;16.60;97.50;;;;;;4916514;29;20024;-48
2021/11/08 09:17:21;;;;;;;8.65;2.55;;;16.60;97.50;;;;;;4916255;29;20119;-47
2021/11/08 09:19:47;;;;;;;7.68;2.28;;;16.80;83.60;;;;;;4916199;29;20050;-47
2021/11/08 09:22:13;;;;;;;7.07;1.67;;;;;;;;;;4916195;29;20025;-48
2021/11/08 09:24:40;;;;;;;5.03;1.40;;;16.40;97.70;;;;;;4916034;29;20111;-47
2021/11/08 09:27:06;;;;;;;4.75;1.48;;;16.70;82.00;;;;;;4916397;29;20115;-48
2021/11/08 09:29:32;;;;;;;5.35;2.15;;;16.70;97.60;;;;;;4916283;29;20064;-47
2021/11/08 09:31:57;;;;;;;5.75;1.60;;;16.80;97.90;;;;;;4915163;29;20036;-47
2021/11/08 09:34:24;;;;;;;6.18;1.63;;;;;;;;;;4915360;29;20024;-47
2021/11/08 09:36:53;;;;;;;7.25;1.95;;;16.80;97.40;;;;;;4915922;29;20115;-47
2021/11/08 09:39:24;;;;;;;7.65;1.63;;;16.90;71.60;;;;;;4915814;29;20040;-48
2021/11/08 09:41:53;;;;;;;5.70;1.98;;;17.00;97.50;;;;;;4915481;29;20047;-47
2021/11/08 09:44:19;;;;;;;7.05;1.75;;;16.90;69.40;;;;;;4915526;29;20040;-47
2021/11/08 09:46:45;;;;;;;6.63;1.92;;;;;;;;;;4915423;29;20068;-47
2021/11/08 09:49:11;;;;;;;9.35;1.92;;;17.10;97.40;;;;;;4915446;29;20463;-47
2021/11/08 09:51:41;;;;;;;7.53;2.13;;;17.10;71.30;;;;;;4915735;29;20027;-46
2021/11/08 09:54:10;;;;;;;3.97;1.80;;;17.00;97.50;;;;;;4915788;29;20043;-47
2021/11/08 09:56:36;;;;;;;4.25;1.83;;;17.10;97.80;;;;;;4916024;29;20020;-47
2021/11/08 09:59:02;;;;;;;4.78;1.95;;;16.60;97.40;;;;;;4915938;29;20107;-46
2021/11/08 10:01:30;;;;;;;6.55;1.80;;;;;;;;;;4915561;29;20447;-48
2021/11/08 10:03:56;;;;;;;4.97;1.65;;;;;;;;;;4915400;29;20134;-48
2021/11/08 10:06:22;;;;;;;4.35;1.60;;;;;;;;;;4915886;29;20579;-47
2021/11/08 10:08:49;;;;;;;3.63;1.55;;;;;;;;;;4915608;29;20377;-47
2021/11/08 10:11:17;;;;;;;7.10;1.90;;;17.00;71.10;;;;;;4915656;29;20024;-47
2021/11/08 10:13:45;;;;;;;8.85;2.20;;;17.00;71.10;;;;;;4895626;29;20540;-47
2021/11/08 10:16:11;;;;;;;8.75;2.22;;;;;;;;;;4912398;29;20032;-47
2021/11/08 10:18:39;;;;;;;9.15;2.08;;;17.10;71.10;;;;;;4915866;29;20028;-46
2021/11/08 10:21:07;;;;;;;7.95;2.22;;;16.70;97.60;;;;;;4915869;29;20032;-47
2021/11/08 10:23:34;;;;;;;6.07;1.70;;;17.10;70.80;;;;;;4915809;29;20467;-47
2021/11/08 10:26:04;;;;;;;5.78;1.90;;;17.30;97.20;;;;;;4915497;29;20028;-49
2021/11/08 10:28:30;;;;;;;10.68;2.10;;;;;;;;;;4915830;29;20051;-47
2021/11/08 10:31:04;;;;;;;6.45;1.92;;;17.10;97.30;;;;;;4915383;29;20032;-47
2021/11/08 10:33:32;;;;;;;11.93;2.28;;;17.20;97.50;;;;;;4915572;29;20032;-47
2021/11/08 10:36:10;;;;;;;5.47;1.80;;;17.30;97.20;;;;;;4915612;29;20027;-47
2021/11/08 10:38:37;;;;;;;4.70;1.50;;;17.20;97.60;;;;;;4915510;29;20040;-47
2021/11/08 10:41:23;;;;;;;4.25;1.75;;;17.10;91.40;;;;;;4915347;29;20020;-47
2021/11/08 10:43:51;;;;;;;5.07;1.60;;;17.10;70.80;;;;;;4916228;29;20039;-47
2021/11/08 10:46:21;;;;;;;5.85;1.70;;;17.20;70.80;;;;;;4919102;29;20029;-47
2021/11/08 10:49:09;;;;;;;6.53;1.50;;;16.70;97.50;;;;;;4918872;29;20115;-47
2021/11/08 10:51:37;;;;;;;7.38;1.83;;;17.10;70.80;;;;;;4918468;29;20087;-47
2021/11/08 10:54:06;;;;;;;16.00;2.30;;;17.10;70.70;;;;;;4919030;29;20409;-48
2021/11/08 10:56:40;;;;;;;4.95;1.70;;;17.20;97.60;;;;;;4918992;29;20032;-47
2021/11/08 10:59:20;;;;;;;5.03;1.35;;;17.10;97.80;;;;;;4918925;29;20024;-45
2021/11/08 11:01:54;;;;;;;9.80;2.85;;;16.90;76.10;;;;;;4918422;29;20431;-46
2021/11/08 11:04:44;;;;;;;6.50;1.95;;;15.70;66.30;;;;;;4918614;29;20041;-48
2021/11/08 11:07:35;;;;;;;4.32;1.70;;;16.90;98.20;;;;;;4918530;29;20054;-47
2021/11/08 11:10:08;;;;;;;6.88;1.55;;;17.00;71.30;;;;;;4911578;29;20063;-46
2021/11/08 11:12:35;;;;;;;10.52;2.13;;;16.90;71.60;;;;;;4918720;29;20039;-46
2021/11/08 11:15:10;;;;;;;4.32;1.60;;;16.90;66.20;;;;;;4918274;29;20110;-46
2021/11/08 11:17:51;;;;;;;6.07;2.13;;;16.90;66.50;;;;;;4918303;29;20024;-46
2021/11/08 11:20:17;;;;;;;5.90;1.67;;;;;;;;;;4918200;29;20026;-45
2021/11/08 11:22:52;;;;;;;7.50;1.85;;;17.10;75.60;;;;;;4918097;29;20491;-45
2021/11/08 11:25:21;;;;;;;7.32;1.85;;;;;;;;;;4918052;29;20503;-46
2021/11/08 11:27:50;;;;;;;6.63;1.70;;;16.80;71.70;;;;;;4918483;29;20368;-45
2021/11/08 11:30:24;;;;;;;5.65;1.50;;;16.90;72.00;;;;;;4918282;29;20016;-45
2021/11/08 11:33:01;;;;;;;4.50;1.73;;;16.80;66.20;;;;;;4918317;29;20032;-46
2021/11/08 11:35:29;;;;;;;3.22;1.75;;;16.90;71.00;;;;;;4918093;29;20032;-46
2021/11/08 11:38:05;;;;;;;5.50;2.05;;;16.80;65.90;;;;;;4917799;29;20095;-45
2021/11/08 11:40:39;;;;;;;5.32;1.77;;;16.80;70.60;;;;;;4918310;29;20044;-43
2021/11/08 11:43:10;;;;;;;5.20;2.15;;;17.20;68.50;;;;;;4917718;29;20067;-44
2021/11/08 11:45:48;;;;;;;9.30;2.55;;;16.90;97.80;;;;;;4918093;29;20078;-43
2021/11/08 11:48:14;;;;;;;6.10;1.92;;;16.60;97.70;;;;;;4917970;29;20067;-42
2021/11/08 11:50:40;;;;;;;4.63;1.55;;;;;;;;;;4917691;29;20024;-43
2021/11/08 11:53:06;;;;;;;7.50;1.98;;;16.90;97.80;;;;;;4917860;29;20084;-43
2021/11/08 11:55:34;;;;;;;6.40;1.30;;;16.90;97.70;;;;;;4916604;29;20028;-43
2021/11/08 11:58:01;;;;;;;4.18;1.35;;;16.80;97.80;;;;;;4917525;29;20040;-43
2021/11/08 12:00:29;;;;;;;8.15;2.25;;;16.80;71.70;;;;;;4917466;29;20020;-43
2021/11/08 12:02:57;;;;;;;6.75;1.77;;;16.80;71.70;;;;;;4916984;29;20044;-43
2021/11/08 12:05:23;;;;;;;7.63;1.48;;;;;;;;;;4917500;29;20054;-44
2021/11/08 12:07:51;;;;;;;3.78;1.58;;;16.70;71.50;;;;;;4917034;29;20036;-44
2021/11/08 12:10:18;;;;;;;4.50;1.42;;;16.70;70.70;;;;;;4916753;29;20031;-45
2021/11/08 12:12:44;;;;;;;5.93;1.90;;;16.50;97.90;;;;;;4917358;29;20040;-44
2021/11/08 12:15:12;;;;;;;4.65;1.75;;;16.70;98.00;;;;;;4916945;29;20033;-45
2021/11/08 12:17:47;;;;;;;4.43;1.45;;;18.10;71.90;;;;;;4917444;29;20032;-44
2021/11/08 12:20:16;;;;;;;3.30;1.08;;;16.70;70.50;;;;;;4917414;29;20368;-46
2021/11/08 12:22:43;;;;;;;5.93;1.63;;;;;;;;;;4916873;29;20047;-44
2021/11/08 12:25:15;;;;;;;5.35;1.63;;;16.70;66.40;;;;;;4916847;29;20047;-44
2021/11/08 12:27:56;;;;;;;4.68;1.60;;;16.70;71.50;;;;;;4917336;29;20032;-47
2021/11/08 12:30:33;;;;;;;5.15;1.65;;;16.60;98.00;;;;;;4917208;29;20390;-46
2021/11/08 12:33:06;;;;;;;4.82;1.80;;;16.70;71.30;;;;;;4916955;29;20059;-47
2021/11/08 12:35:35;;;;;;;6.43;1.88;;;16.60;97.80;;;;;;4916915;29;20028;-46
2021/11/08 12:38:14;;;;;;;6.22;2.40;;;17.00;97.70;;;;;;4917113;29;20032;-47
2021/11/08 12:40:41;;;;;;;3.78;1.80;;;16.80;97.50;;;;;;4916765;29;20035;-46
2021/11/08 12:43:07;;;;;;;3.75;1.50;;;;;;;;;;4916929;29;20032;-47
2021/11/08 12:45:41;;;;;;;6.10;2.10;;;16.60;97.60;;;;;;4917235;29;20047;-46
2021/11/08 12:48:07;;;;;;;4.30;1.50;;;;;;;;;;4916534;29;20501;-46
2021/11/08 12:50:43;;;;;;;4.22;1.48;;;16.40;97.40;;;;;;4916785;29;20020;-46
2021/11/08 12:53:29;;;;;;;4.13;1.58;;;13.80;64.60;;;;;;4916574;29;20111;-46
2021/11/08 12:55:57;;;;;;;5.63;1.38;;;16.60;70.80;;;;;;4916580;29;20036;-47
2021/11/08 12:58:43;;;;;;;3.70;1.60;;;16.60;96.50;;;;;;4916488;29;20483;-47
2021/11/08 13:01:15;;;;;;;5.20;1.48;;;16.70;71.00;;;;;;4916785;29;20039;-47
2021/11/08 13:03:44;;;;;;;4.32;1.30;;;16.60;68.70;;;;;;4916178;29;20056;-47
2021/11/08 13:06:25;;;;;;;5.80;2.15;;;16.70;97.60;;;;;;4916551;29;20084;-44
2021/11/08 13:09:12;;;;;;;4.03;1.40;;;16.60;71.10;;;;;;4916335;29;20048;-45
2021/11/08 13:11:53;;;;;;;2.83;1.20;;;19.60;72.60;;;;;;4895954;29;20071;-47
2021/11/08 13:14:24;;;;;;;4.03;1.45;;;16.70;91.90;;;;;;4914093;29;20047;-46
2021/11/08 13:17:01;;;;;;;4.55;1.38;;;16.70;97.40;;;;;;4916473;29;20176;-47
2021/11/08 13:19:29;;;;;;;5.28;1.65;;;16.70;97.50;;;;;;4916219;29;20471;-46
2021/11/08 13:22:10;;;;;;;3.67;1.23;;;16.80;70.30;;;;;;4916045;29;20028;-47
2021/11/08 13:24:36;;;;;;;6.45;1.70;;;;;;;;;;4916380;29;20051;-46
2021/11/08 13:27:01;;;;;;;5.30;1.52;;;17.00;97.00;;;;;;4895907;29;20033;-46
2021/11/08 13:29:27;;;;;;;4.82;1.40;;;17.10;97.00;;;;;;4915167;29;20024;-47
2021/11/08 13:31:54;;;;;;;3.78;1.35;;;17.20;69.40;;;;;;4915925;29;20124;-47
2021/11/08 13:34:20;;;;;;;6.13;1.80;;;;;;;;;;4916287;29;20450;-47
2021/11/08 13:36:48;;;;;;;2.75;1.35;;;17.40;96.70;;;;;;4915937;29;20074;-47
2021/11/08 13:39:14;;;;;;;3.10;1.30;;;;;;;;;;4915836;29;20025;-47
2021/11/08 13:41:40;;;;;;;1.98;0.95;;;17.50;96.80;;;;;;4916092;29;20042;-48
2021/11/08 13:44:10;;;;;;;5.65;1.40;;;17.60;68.20;;;;;;4915781;29;20040;-47
2021/11/08 13:46:37;;;;;;;;;;;17.70;69.70;;;;;;4916250;29;20040;-46
2021/11/08 13:49:09;;;;;;;4.63;1.58;;;17.40;65.10;;;;;;4916130;29;19907;-48
2021/11/08 13:51:40;;;;;;;3.13;1.50;;;17.60;68.40;;;;;;4898645;29;20036;-47
2021/11/08 13:54:12;;;;;;;10.10;1.58;;;17.50;68.40;;;;;;4915992;29;20036;-47
2021/11/08 13:56:39;;;;;;;5.43;1.80;;;17.50;68.30;;;;;;4916093;29;20111;-47
2021/11/08 13:59:08;;;;;;;5.35;1.73;;;17.50;68.60;;;;;;4915994;29;20059;-47
2021/11/08 14:01:36;;;;;;;3.92;1.38;;;17.50;68.40;;;;;;4915261;29;20020;-46
2021/11/08 14:04:03;;;;;;;7.20;1.88;;;17.50;74.80;;;;;;4915309;29;20038;-46
2021/11/08 14:06:33;;;;;;;7.63;2.03;;;17.40;68.60;;;;;;4915367;29;20032;-46
2021/11/08 14:09:00;;;;;;;3.90;1.60;;;17.40;67.60;;;;;;4915518;29;20611;-47
2021/11/08 14:11:32;;;;;;;5.78;1.83;;;17.40;96.90;;;;;;4915635;29;20463;-47
2021/11/08 14:14:20;;;;;;;5.72;1.70;;;17.50;96.90;;;;;;4915985;29;20387;-48
2021/11/08 14:16:48;;;;;;;5.25;1.48;;;17.50;69.00;;;;;;4914275;29;20070;-48
2021/11/08 14:19:15;;;;;;;4.10;1.80;;;17.50;68.50;;;;;;4897678;29;20496;-47
2021/11/08 14:21:42;;;;;;;4.68;1.70;;;17.50;68.20;;;;;;4919532;29;20063;-47
2021/11/08 14:24:13;;;;;;;4.65;1.40;;;17.30;96.20;;;;;;4919220;29;20050;-47
2021/11/08 14:26:44;;;;;;;5.85;1.88;;;17.50;68.10;;;;;;4919535;29;20434;-48
2021/11/08 14:29:24;;;;;;;5.28;1.70;;;17.30;69.80;;;;;;4919503;29;20087;-46
2021/11/08 14:31:55;;;;;;;2.78;1.38;;;17.70;82.10;;;;;;4919367;29;20071;-45
2021/11/08 14:34:26;;;;;;;4.07;1.08;;;18.00;96.70;;;;;;4919451;29;20040;-45
2021/11/08 14:36:52;;;;;;;5.93;1.60;;;;;;;;;;4918886;29;20071;-44
2021/11/08 14:39:22;;;;;;;6.22;1.77;;;17.30;96.40;;;;;;4899828;29;20033;-44
2021/11/08 14:41:57;;;;;;;5.82;1.00;;;17.60;68.80;;;;;;4919004;29;20501;-44
2021/11/08 14:44:25;;;;;;;4.60;1.42;;;17.50;69.10;;;;;;4918953;29;20398;-45
2021/11/08 14:46:53;;;;;;;4.00;1.25;;;17.50;69.30;;;;;;4919040;29;20027;-45
2021/11/08 14:49:25;;;;;;;5.28;1.77;;;17.60;64.20;;;;;;4918857;29;20513;-44
2021/11/08 14:52:06;;;;;;;5.28;1.60;;;17.50;64.60;;;;;;4918769;29;20035;-45
2021/11/08 14:54:34;;;;;;;3.25;1.10;;;17.90;96.90;;;;;;4918822;29;20111;-44
2021/11/08 14:57:02;;;;;;;4.32;1.70;;;17.80;96.60;;;;;;4918495;29;20029;-44
2021/11/08 14:59:31;;;;;;;3.80;1.30;;;17.60;96.60;;;;;;4918641;29;20024;-46
2021/11/08 15:02:09;;;;;;;5.05;2.03;;;17.70;96.70;;;;;;4918366;29;20084;-44
2021/11/08 15:04:46;;;;;;;4.82;1.50;;;17.60;69.00;;;;;;4898448;29;20032;-44
2021/11/08 15:07:12;;;;;;;7.10;1.67;;;17.70;97.10;;;;;;4915385;29;20111;-44
2021/11/08 15:09:44;;;;;;;3.65;1.40;;;17.60;69.80;;;;;;4918769;29;20032;-44
2021/11/08 15:12:31;;;;;;;3.85;1.58;;;17.60;97.10;;;;;;4918532;29;20032;-44
2021/11/08 15:15:03;;;;;;;4.20;1.50;;;16.80;69.40;;;;;;4918424;29;20035;-44
2021/11/08 15:17:32;;;;;;;4.03;1.35;;;17.70;69.50;;;;;;4918361;29;20040;-44
2021/11/08 15:20:09;;;;;;;5.15;1.38;;;17.60;65.10;;;;;;4918475;29;20518;-45
2021/11/08 15:22:35;;;;;;;6.38;1.70;;;17.80;77.70;;;;;;4918142;29;20039;-46
2021/11/08 15:25:35;;;;;;;6.65;1.63;;;17.30;75.40;;;;;;4918077;29;20024;-44
2021/11/08 15:28:06;;;;;;;6.28;1.63;;;17.60;69.20;;;;;;4907964;29;20040;-44
2021/11/08 15:30:34;;;;;;;7.18;1.55;;;17.70;96.80;;;;;;4918190;29;20402;-45
2021/11/08 15:33:22;;;;;;;2.90;1.30;;;17.30;96.70;;;;;;4918299;29;20039;-44
2021/11/08 15:35:54;;;;;;;3.45;1.15;;;17.20;96.60;;;;;;4918166;29;20028;-44
2021/11/08 15:38:28;;;;;;;3.83;1.30;;;17.60;68.80;;;;;;4917880;29;20487;-44
2021/11/08 15:40:54;;;;;;;5.80;1.25;;;17.90;96.40;;;;;;4917953;29;20024;-44
2021/11/08 15:43:20;;;;;;;6.90;1.92;;;17.80;96.50;;;;;;4917870;29;20442;-45
2021/11/08 15:45:58;;;;;;;4.72;1.13;;;17.60;96.10;;;;;;4917994;29;20020;-44
2021/11/08 15:48:25;;;;;;;6.72;1.48;;;17.30;96.20;;;;;;4917733;29;20043;-44
2021/11/08 15:50:51;;;;;;;3.03;1.60;;;17.80;93.80;;;;;;4917691;29;20398;-44
2021/11/08 15:53:17;;;;;;;4.57;1.42;;;17.90;71.90;;;;;;4918014;29;20024;-44
2021/11/08 15:55:43;;;;;;;4.97;1.27;;;;;;;;;;4917473;29;20472;-44
2021/11/08 15:58:11;;;;;;;6.75;1.70;;;17.80;96.40;;;;;;4917789;29;20051;-44
2021/11/08 16:00:39;;;;;;;4.82;1.42;;;17.80;68.50;;;;;;4917775;29;20368;-44
2021/11/08 16:03:06;;;;;;;6.50;1.60;;;17.80;96.00;;;;;;4917039;29;20048;-44
2021/11/08 16:05:32;;;;;;;3.53;1.50;;;17.80;96.50;;;;;;4917386;29;20491;-45
2021/11/08 16:07:58;;;;;;;4.60;1.60;;;17.80;96.40;;;;;;4917350;29;20091;-45
2021/11/08 16:10:24;;;;;;;6.45;1.63;;;17.90;96.60;;;;;;4917473;29;20386;-44
2021/11/08 16:12:50;;;;;;;5.93;1.20;;;17.50;96.30;;;;;;4917407;29;20028;-46
2021/11/08 16:15:16;;;;;;;4.22;1.42;;;17.60;92.70;;;;;;4917373;29;20032;-45
2021/11/08 16:17:42;;;;;;;4.07;1.17;;;17.80;96.80;;;;;;4917379;29;20020;-45
2021/11/08 16:20:09;;;;;;;3.38;1.15;;;17.60;69.10;;;;;;4917152;29;20161;-45
2021/11/08 16:22:35;;;;;;;6.45;1.88;;;;;;;;;;4916971;29;20503;-45
2021/11/08 16:25:02;;;;;;;8.40;1.58;;;17.70;97.00;;;;;;4917418;29;20029;-43
2021/11/08 16:27:28;;;;;;;2.17;0.93;;;17.50;96.90;;;;;;4916889;29;20517;-44
2021/11/08 16:29:55;;;;;;;5.68;1.60;;;17.60;69.40;;;;;;4916858;29;20020;-43
2021/11/08 16:33:00;;;;;;;3.25;1.48;;;17.40;96.70;;;;;;4916811;29;20084;-44
2021/11/08 16:35:46;;;;;;;4.55;1.55;;;17.60;68.70;;;;;;4916806;29;20028;-44
2021/11/08 16:38:21;;;;;;;4.20;1.20;;;17.60;77.20;;;;;;4915880;29;20036;-43
2021/11/08 16:40:59;;;;;;;4.50;1.35;;;17.40;96.80;;;;;;4916694;29;20038;-43
2021/11/08 16:43:25;;;;;;;4.55;1.50;;;;;;;;;;4916210;29;20067;-44
2021/11/08 16:45:57;;;;;;;4.10;1.30;;;17.20;79.30;;;;;;4916335;29;20032;-44
2021/11/08 16:48:30;;;;;;;7.45;1.73;;;17.20;69.40;;;;;;4916507;29;20371;-45
2021/11/08 16:50:57;;;;;;;7.43;1.50;;;17.40;97.10;;;;;;4916339;29;20035;-44
2021/11/08 16:53:23;;;;;;;4.75;1.35;;;;;;;;;;4916541;29;20415;-44
2021/11/08 16:55:50;;;;;;;4.18;1.48;;;17.30;68.80;;;;;;4916518;29;20440;-44
2021/11/08 16:58:17;;;;;;;5.00;1.73;;;17.10;96.50;;;;;;4916415;29;20028;-44
2021/11/08 17:00:47;;;;;;;3.60;1.70;;;17.30;68.30;;;;;;4916157;29;20745;-45
2021/11/08 17:03:14;;;;;;;5.65;1.88;;;17.40;69.00;;;;;;4915877;29;20062;-43
2021/11/08 17:05:44;;;;;;;6.63;1.52;;;;;;;;;;4916046;29;20039;-44
2021/11/08 17:08:19;;;;;;;6.30;1.80;;;17.60;96.30;;;;;;4916373;29;20490;-44
2021/11/08 17:11:07;;;;;;;5.97;1.90;;;17.40;68.10;;;;;;4916368;29;20119;-44
2021/11/08 17:13:33;;;;;;;5.50;1.70;;;17.60;96.60;;;;;;4916362;29;20035;-44
2021/11/08 17:16:01;;;;;;;4.90;1.73;;;17.40;68.20;;;;;;4916241;29;20029;-44
2021/11/08 17:18:27;;;;;;;5.80;1.73;;;;;;;;;;4916441;29;20056;-44
2021/11/08 17:21:00;;;;;;;6.47;2.00;;;17.30;96.60;;;;;;4916579;29;20028;-45
2021/11/08 17:23:26;;;;;;;8.55;2.47;;;;;;;;;;4915856;29;20086;-45
2021/11/08 17:25:52;;;;;;;5.50;1.70;;;;;;;;;;4915926;29;20407;-46
2021/11/08 17:28:18;;;;;;;4.70;2.08;;;;;;;;;;4915873;29;20080;-45
2021/11/08 17:30:45;;;;;;;4.32;1.75;;;17.00;84.60;;;;;;4916077;29;20025;-45
2021/11/08 17:33:11;;;;;;;5.95;1.60;;;;;;;;;;4915902;29;20494;-45
2021/11/08 17:35:37;;;;;;;4.63;1.60;;;;;;;;;;4915822;29;20039;-44
2021/11/08 17:38:04;;;;;;;6.20;1.95;;;17.70;67.30;;;;;;4915857;29;20028;-44
2021/11/08 17:40:30;;;;;;;5.05;1.73;;;17.60;96.00;;;;;;4916162;29;20118;-44
2021/11/08 17:42:56;;;;;;;3.97;1.85;;;17.80;96.20;;;;;;4915968;29;20056;-44
2021/11/08 17:45:22;;;;;;;6.45;1.90;;;17.60;66.60;;;;;;4915788;29;20020;-44
2021/11/08 17:47:49;;;;;;;10.65;1.73;;;17.70;96.10;;;;;;4915746;29;20119;-44
2021/11/08 17:50:18;;;;;;;4.38;1.50;;;17.50;67.60;;;;;;4915700;29;20028;-44
2021/11/08 17:52:44;;;;;;;6.80;2.10;;;;;;;;;;4915615;29;20030;-45
2021/11/08 17:55:17;;;;;;;5.72;1.88;;;17.60;68.00;;;;;;4919230;29;20279;-44
2021/11/08 17:57:43;;;;;;;6.28;1.77;;;;;;;;;;4919905;29;20016;-45
2021/11/08 18:00:11;;;;;;;5.63;1.60;;;17.70;89.50;;;;;;4919853;29;20436;-46
2021/11/08 18:02:40;;;;;;;6.68;1.55;;;17.70;71.00;;;;;;4918806;29;20048;-45
2021/11/08 18:05:08;;;;;;;6.53;1.80;;;17.30;96.10;;;;;;4919775;29;20028;-48
2021/11/08 18:07:35;;;;;;;6.70;2.05;;;17.30;96.30;;;;;;4919424;29;20475;-50
2021/11/08 18:10:01;;;;;;;4.07;2.33;;;;;;;;;;4919321;29;20031;-46
2021/11/08 18:12:27;;;;;;;4.38;1.45;;;17.70;90.90;;;;;;4919369;29;20028;-46
2021/11/08 18:14:53;;;;;;;3.20;1.48;;;;;;;;;;4919367;29;20598;-46
2021/11/08 18:17:19;;;;;;;5.53;1.73;;;;;;;;;;4919282;29;20028;-45
2021/11/08 18:19:47;;;;;;;6.97;1.88;;;17.40;79.10;;;;;;4919135;29;20115;-45
2021/11/08 18:22:29;;;;;;;6.15;2.03;;;;;;;;;;4919329;29;20028;-45
2021/11/08 18:25:13;;;;;;;5.43;1.92;;;;;;;;;;4919350;29;20043;-44
2021/11/08 18:27:40;;;;;;;3.65;1.73;;;;;;;;;;4919121;29;20471;-44
2021/11/08 18:30:08;;;;;;;6.00;1.63;;;17.30;96.40;;;;;;4919397;29;20047;-45
2021/11/08 18:32:34;;;;;;;6.15;1.80;;;17.10;96.50;;;;;;4919080;29;20024;-44
2021/11/08 18:35:02;;;;;;;5.55;1.80;;;17.50;96.70;;;;;;4919289;29;20107;-44
2021/11/08 18:37:28;;;;;;;5.50;1.67;;;;;;;;;;4919226;29;20047;-45
2021/11/08 18:39:54;;;;;;;6.40;2.03;;;;;;;;;;4919109;29;20467;-44
2021/11/08 18:42:20;;;;;;;6.28;2.00;;;17.60;96.70;;;;;;4919092;29;20040;-46
2021/11/08 18:44:48;;;;;;;7.15;2.15;;;17.40;96.30;;;;;;4918829;29;20039;-45
2021/11/08 18:47:14;;;;;;;4.93;1.67;;;;;;;;;;4919038;29;20059;-45
2021/11/08 18:49:41;;;;;;;6.85;1.90;;;17.40;96.50;;;;;;4918614;29;20032;-45
2021/11/08 18:52:08;;;;;;;4.65;1.40;;;17.30;68.20;;;;;;4918733;29;20487;-46
2021/11/08 18:54:35;;;;;;;3.78;1.67;;;17.50;96.40;;;;;;4918903;29;20099;-45
2021/11/08 18:57:01;;;;;;;4.65;2.20;;;17.50;67.10;;;;;;4918510;29;20032;-45
2021/11/08 18:59:33;;;;;;;5.13;1.67;;;17.40;68.30;;;;;;4918763;29;20028;-45
2021/11/08 19:02:08;;;;;;;6.05;1.60;;;17.50;96.50;;;;;;4918153;29;20503;-46
2021/11/08 19:04:42;;;;;;;6.25;1.55;;;17.60;96.30;;;;;;4918336;29;20044;-46
2021/11/08 19:09:41;;;;;;;3.42;1.50;;;;;;;;;;4918744;29;20123;-46
2021/11/08 19:12:07;;;;;;;6.57;1.63;;;19.20;67.80;;;;;;4918616;29;20036;-46
2021/11/08 19:14:33;;;;;;;3.22;1.52;;;17.50;81.60;;;;;;4918174;29;20487;-45
2021/11/08 19:16:59;;;;;;;5.88;1.98;;;;;;;;;;4918458;29;20028;-44
2021/11/08 19:19:25;;;;;;;4.38;1.95;;;;;;;;;;4918121;29;20467;-45
2021/11/08 19:21:51;;;;;;;5.68;1.98;;;17.50;67.00;;;;;;4918327;29;20158;-45
2021/11/08 19:24:21;;;;;;;4.60;1.65;;;17.50;68.10;;;;;;4917966;29;20043;-45
2021/11/08 19:26:48;;;;;;;3.77;2.07;;;17.60;68.00;;;;;;4918051;29;20032;-45
2021/11/08 19:29:29;;;;;;;4.68;1.60;;;;;;;;;;4918058;29;20497;-44
2021/11/08 19:31:57;;;;;;;5.78;1.95;;;;;;;;;;4917951;29;20055;-44
2021/11/08 19:34:50;;;;;;;3.58;1.70;;;;;;;;;;4917867;29;20032;-44
2021/11/08 19:40:00;;;;;;;3.80;1.67;;;;;;;;;;4918035;29;20055;-45
2021/11/08 19:42:26;;;;;;;6.38;2.10;;;17.20;95.80;;;;;;4917921;29;22041;-45
2021/11/08 19:44:53;;;;;;;7.88;2.10;;;17.50;95.80;;;;;;4917996;29;20519;-44
2021/11/08 19:47:19;;;;;;;5.82;1.98;;;;;;;;;;4917907;29;20028;-44
2021/11/08 19:49:45;;;;;;;6.38;2.40;;;;;;;;;;4897573;29;20127;-44
2021/11/08 19:52:11;;;;;;;5.55;1.70;;;;;;;;;;4914571;29;20052;-44